Accueil
METAR-TAF:

METAR-TAF

Aéroports :

Aéroport d'Essaouira-Mogador

Essaouira, Maroc

latitude: 31-31N, longitude: 009-47W, altitude: 15 m

Observation

Le bulletin a été fait il y a 10 minutes, à 06:00 UTC
Vent 8 kt de est/nord-est
Température 13°C
Humidité 72%
Pression 1022 hPa
Visibilité: 6000 m
Nuages épars à une hauteur de 1300 ft
Nuages épars à une hauteur de 2600 ft

METAR: GMMI 240600Z AUTO 06008KT 6000 SCT013 SCT026 13/08 Q1022 NOSIG

Heure: 07:10 (06:10 UTC)

Prévision

Le bulletin a été fait il y a 1 heure et 10 minutes, à 05:00 UTC
Prévision valable du 24 à 06 UTC au 25 à 12 UTC
Vent 9 kt de est/nord-est
Visibilité: 6000 m
Nuages épars à une hauteur de 3000 ft
Probabilité 30% :
Temporairement
du 24 à 12 UTC au 24 à 18 UTC
Vent 20 kt de nord avec des rafales jusqu'à 32 kt

TAF: GMMI 240500Z 2406/2512 07009KT 6000 SCT030 PROB30 TEMPO 2412/2418 01020G32KT

Observations et prévisions météorologiques de plus de 4000 aéroports (messages METAR et TAF).

Les stations disponibles sont représentées par des disques jaunes et rouges sur la carte.

Passer la souris dessus pour voir le nom de la station.

Cliquer dessus pour voir les observations et prévisions météorologiques.

Pour changer de carte: cliquez sur les boutons verts avec une croix noire pour zoomer, sur le bouton vert avec un tiret pour effectuer un zoom arrière, ou sur les flèches vertes pour les cartes adjacentes.


METAR-TAF: